Bradenton, FL (34201)

6:25 AM EDT on August 05, 2015 (GMT -0400)
THE MEADOWS | Change Station
CLOSE
Current Station
Personal Weather Station
Location: Sarasota, FL
Elevation: 39 ft
Nearby Weather Stations

Elev 39 ft 27.36 °N, 82.47 °W | Updated 13 minutes ago

Clear
Clear
76.1 °F
Feels Like 76 °F
N
0.0
Wind Variable Wind from SSW
Gusts 0.0 mph

Today
High -- | Low -- °F
--% Chance of Precip.
Yesterday
High -- | Low -- °F
Precip. -- in
6:55 AM 8:15 PM
Waning Gibbous, 68% visible
Pressure 30.07 in
Visibility 7.0 miles
Clouds Clear
Heat Index 76 °F
Dew Point 75 °F
Humidity 96%
Rainfall 0.00 in
Snow Depth Not available.
UV 0 out of 12
Pollen 2.60 out of 12
Air Quality Not available.
Flu Activity Not available.
METAR KSRQ 050953Z AUTO 08003KT 7SM CLR 24/23 A3007 RMK AO2 SLP182 T02390233

More Conditions Fewer Conditions

Pressure 30.07 in
Visibility 7.0 miles
Clouds Clear
Heat Index 76 °F
Dew Point 75 °F
Humidity 96%
Rainfall 0.00 in
Snow Depth Not available.
UV 0 out of 12
Pollen 2.60 out of 12
Air Quality Not available.
Flu Activity Not available.
METAR KSRQ 050953Z AUTO 08003KT 7SM CLR 24/23 A3007 RMK AO2 SLP182 T02390233

More Conditions Fewer Conditions

10-Day Weather Forecast

Almanac

Astronomy

Aug. 05, 2015 Rise Set
Actual Time 6:55 AM EDT 8:15 PM EDT
Civil Twilight 6:30 AM EDT 8:40 PM EDT
Nautical Twilight 6:00 AM EDT 9:10 PM EDT
Astronomical Twilight 5:29 AM EDT 9:41 PM EDT
Moon No Moon Rise 12:23 PM EDT
Length of Visible Light 14h 10m
Length of Day
13h 20m
Tomorrow will be 1m 16s shorter.
Waning Gibbous, 68% of the Moon is Illuminated
Today
Waning Gibbous
Aug 6
Last Quarter
Aug 14
New
Aug 22
First Quarter
Aug 29
Full

Today's Extremes

State Highs State Lows

Community

WunderPhotos

Upload Photos

1,844,113 photos uploaded!

Nearby

Snow Depth

Station Depth Elevation
No new snow has been reported.

Earthquake Activity

City Distance Mag. Time & Date
No recent earthquake activity has been reported nearby.
Minimum magnitude displayed is 2.5.

Coastal Water Temperatures

Place Temperature
Clearwater Beach, FL 81.0 °F
Port Manatee, FL 82.9 °F
St Petersburg, FL 84.9 °F
Old Port Tampa, FL 82.9 °F
McKay Bay Entrance, FL 82.0 °F

Nearby Weather Stations